Terminal Aerodrome Forecast
Issued by NWS Twin Cities, MN

Home | Current Version | Previous Version | Text Only | Print | Product List | Glossary On
Versions: 1 2 3 4 5 6 7 8 9 10 11 12 13 14 15 16 17 18 19 20 21 22 23 24 25 26 27 28 29
000
FTUS43 KMPX 301725
TAFMSP
TAF
KMSP 301725Z 3018/3124 19012KT P6SM SCT200
     FM310000 18006KT P6SM SKC
     FM311000 18006KT P6SM SCT008
     FM311500 18014G20KT P6SM SKC=

USA.gov is the U.S. government's official web portal to all federal, state and local government web resources and services.